Monday, January 22, 2018, 9:05 AM EST
Back to Local

KPNE, N.e. Philadelphia Airport

Location: Philadelphia, PA, United States Lat: 40.083
Local Time: 9:05 AM EST (14:05 GMT) Lon: -75.017
Time Zone: US/Eastern Elev: 121 ft

Show me the last for .
Show Decoded

2018-01-22 07:54 METAR KPNE 221254Z 00000KT 9SM OVC100 07/03 A3017 RMK AO2 SLP218 T00670033 =
2018-01-22 06:54 METAR KPNE 221154Z 00000KT 10SM SCT050 OVC100 07/03 A3016 RMK AO2 SLP213
                 T00670033 10083 20061 53004 =
2018-01-22 05:54 METAR KPNE 221054Z 00000KT 9SM OVC050 07/03 A3015 RMK AO2 SLP210 T00670033 =
2018-01-22 04:54 METAR KPNE 220954Z AUTO 00000KT 9SM SCT065 OVC100 07/04 A3014 RMK AO2 SLP208
                 T00670039 =
2018-01-22 03:54 METAR KPNE 220854Z AUTO 00000KT 9SM BKN060 OVC095 07/04 A3014 RMK AO2 SLP208
                 T00670039 50001 =
2018-01-22 02:54 METAR KPNE 220754Z AUTO 00000KT 9SM FEW055 OVC090 08/03 A3015 RMK AO2 SLP210
                 T00780033 =
2018-01-22 01:54 METAR KPNE 220654Z AUTO 34004KT 9SM BKN060 OVC075 08/03 A3016 RMK AO2 SLP212
                 T00780028 =
2018-01-22 00:54 METAR KPNE 220554Z AUTO 00000KT 9SM FEW060 OVC090 08/03 A3014 RMK AO2 SLP206
                 T00780028 10094 20067 58014 =
2018-01-21 23:54 METAR KPNE 220454Z AUTO 00000KT 9SM FEW055 OVC090 09/03 A3016 RMK AO2 SLP211
                 T00890028 401281006 =
2018-01-21 22:54 METAR KPNE 220354Z AUTO 00000KT 8SM BKN050 OVC090 08/03 A3017 RMK AO2 SLP215
                 T00830033 =
2018-01-21 21:54 METAR KPNE 220254Z 00000KT 8SM FEW048 SCT060 OVC085 08/03 A3018 RMK AO2 SLP221
                 T00830033 58003 =
2018-01-21 20:54 METAR KPNE 220154Z 00000KT 8SM OVC045 09/03 A3019 RMK AO2 SLP224 T00940033 =
2018-01-21 19:54 METAR KPNE 220054Z 00000KT 8SM OVC042 08/03 A3019 RMK AO2 SLP225 T00780028 =
2018-01-21 18:54 METAR KPNE 212354Z 00000KT 8SM SCT044 OVC080 07/02 A3019 RMK AO2 SLP223
                 T00670017 10128 20061 51009 =
2018-01-21 17:54 METAR KPNE 212254Z 00000KT 9SM BKN080 08/03 A3018 RMK AO2 SLP221 T00830028 =
2018-01-21 16:54 METAR KPNE 212154Z 00000KT 9SM OVC036 11/03 A3017 RMK AO2 SLP218 T01110033 =
2018-01-21 15:54 METAR KPNE 212054Z VRB03KT 10SM OVC039 12/03 A3016 RMK AO2 SLP213 T01170033
                 56005 =
2018-01-21 15:08 METAR KPNE 212008Z 26004KT 10SM OVC030 12/03 A3016 RMK AO2 T01170028 =
2018-01-21 14:54 METAR KPNE 211954Z 23004KT 10SM OVC028 12/03 A3017 RMK AO2 SLP215 T01170028 =
2018-01-21 14:26 METAR KPNE 211926Z 29003KT 10SM OVC028 12/03 A3016 RMK AO2 T01170028 =
2018-01-21 13:54 METAR KPNE 211854Z 29005KT 10SM OVC036 12/03 A3017 RMK AO2 SLP215 T01170028 =
2018-01-21 12:54 METAR KPNE 211754Z AUTO 27003KT 10SM OVC037 12/02 A3018 RMK AO2 SLP219 T01170022
                 10122 21006 58015 =
2018-01-21 11:54 METAR KPNE 211654Z AUTO 32005KT 10SM OVC036 11/02 A3021 RMK AO2 SLP229 T01110017
                 =
2018-01-21 10:54 METAR KPNE 211554Z AUTO 31011KT 10SM FEW033 11/02 A3023 RMK AO2 SLP237 T01110017
                 =
2018-01-21 09:54 METAR KPNE 211454Z AUTO 32007KT 10SM CLR 11/02 A3022 RMK AO2 SLP234 T01060017
                 53015 =

Support USWX by starting your Amazon purchase here.